createdAt,value
2023-11-30T00:01:36.637Z,-2.07
2023-11-30T00:04:04.784Z,-2.06
2023-11-30T00:06:39.131Z,-2.05
2023-11-30T00:09:07.651Z,-2.03
2023-11-30T00:11:35.720Z,-2.00
2023-11-30T00:14:03.810Z,-1.97
2023-11-30T00:16:31.999Z,-1.95
2023-11-30T00:19:00.056Z,-1.93
2023-11-30T00:21:28.122Z,-1.90
2023-11-30T00:23:56.169Z,-1.88
2023-11-30T00:39:30.712Z,-1.58
2023-11-30T00:41:59.033Z,-1.56
2023-11-30T00:44:27.139Z,-1.60
2023-11-30T00:46:55.270Z,-1.67
2023-11-30T00:49:23.515Z,-1.72
2023-11-30T00:51:51.619Z,-1.76
2023-11-30T00:54:19.842Z,-1.78
2023-11-30T00:56:48.197Z,-1.81
2023-11-30T00:59:16.303Z,-1.84
2023-11-30T01:01:44.580Z,-1.88
2023-11-30T01:04:13.329Z,-1.94
2023-11-30T01:06:41.353Z,-2.01
2023-11-30T01:09:09.565Z,-2.08
2023-11-30T01:11:43.828Z,-2.14
2023-11-30T01:14:11.953Z,-2.18
2023-11-30T01:16:40.751Z,-2.21
2023-11-30T01:19:09.277Z,-2.21
2023-11-30T01:21:37.409Z,-2.21
2023-11-30T01:24:05.983Z,-2.20
2023-11-30T01:26:34.003Z,-2.19
2023-11-30T01:29:02.284Z,-2.19
2023-11-30T01:31:30.411Z,-2.19
2023-11-30T01:33:58.584Z,-2.18
2023-11-30T01:36:26.677Z,-2.16
2023-11-30T01:38:54.944Z,-2.15
2023-11-30T01:41:23.032Z,-2.14
2023-11-30T01:43:51.087Z,-2.14
2023-11-30T01:46:19.273Z,-2.13
2023-11-30T01:48:47.920Z,-2.12
2023-11-30T01:51:16.136Z,-2.12
2023-11-30T01:53:44.650Z,-2.12
2023-11-30T01:56:12.785Z,-2.12
2023-11-30T01:58:40.828Z,-2.11
2023-11-30T02:01:09.107Z,-2.11
2023-11-30T02:03:37.864Z,-2.12
2023-11-30T02:06:06.330Z,-2.11
2023-11-30T02:08:34.477Z,-2.11
2023-11-30T02:11:02.495Z,-2.12
2023-11-30T02:13:30.510Z,-2.14
2023-11-30T02:15:58.795Z,-2.15
2023-11-30T02:18:26.971Z,-2.16
2023-11-30T02:20:57.506Z,-2.17
2023-11-30T02:23:25.579Z,-2.17
2023-11-30T02:25:53.882Z,-2.17
2023-11-30T02:28:21.922Z,-2.18
2023-11-30T02:30:51.186Z,-2.18
2023-11-30T02:33:19.485Z,-2.18
2023-11-30T02:35:47.960Z,-2.18
2023-11-30T02:38:16.004Z,-2.17
2023-11-30T02:40:44.169Z,-2.15
2023-11-30T02:43:12.759Z,-2.15
2023-11-30T02:45:40.867Z,-2.16
2023-11-30T02:48:09.165Z,-2.17
2023-11-30T02:50:38.677Z,-2.19
2023-11-30T02:53:06.730Z,-2.21
2023-11-30T02:55:34.839Z,-2.23
2023-11-30T02:58:02.914Z,-2.25
2023-11-30T03:00:31.084Z,-2.25
2023-11-30T03:02:59.294Z,-2.26
2023-11-30T03:05:27.383Z,-2.26
2023-11-30T03:07:55.596Z,-2.27
2023-11-30T03:10:24.574Z,-2.27
2023-11-30T03:12:53.567Z,-2.27
2023-11-30T03:15:23.562Z,-2.26
2023-11-30T03:17:51.818Z,-2.26
2023-11-30T03:20:20.317Z,-2.28
2023-11-30T03:22:48.469Z,-2.30
2023-11-30T03:25:17.328Z,-2.32
2023-11-30T03:27:45.501Z,-2.32
2023-11-30T03:30:13.765Z,-2.32
2023-11-30T03:32:41.939Z,-2.32
2023-11-30T03:35:10.225Z,-2.32
2023-11-30T03:37:41.826Z,-2.32
2023-11-30T03:40:12.298Z,-2.34
2023-11-30T03:42:40.461Z,-2.36
2023-11-30T03:45:09.506Z,-2.37
2023-11-30T03:47:37.624Z,-2.39
2023-11-30T03:50:06.165Z,-2.41
2023-11-30T03:52:34.413Z,-2.43
2023-11-30T03:55:02.509Z,-2.45
2023-11-30T03:57:30.630Z,-2.46
2023-11-30T03:59:59.053Z,-2.47
2023-11-30T04:02:27.452Z,-2.48
2023-11-30T04:04:56.196Z,-2.47
2023-11-30T04:07:31.129Z,-2.47
2023-11-30T04:10:00.166Z,-2.46
2023-11-30T04:12:28.542Z,-2.46
2023-11-30T04:14:56.665Z,-2.47
2023-11-30T04:17:24.871Z,-2.49
2023-11-30T04:19:52.915Z,-2.54
2023-11-30T04:22:20.994Z,-2.61
2023-11-30T04:24:49.151Z,-2.68
2023-11-30T04:27:17.147Z,-2.76
2023-11-30T04:29:45.425Z,-2.83
2023-11-30T04:32:13.652Z,-2.91
2023-11-30T04:34:42.176Z,-2.98
2023-11-30T04:37:10.440Z,-3.05
2023-11-30T04:39:39.229Z,-3.11
2023-11-30T04:42:07.670Z,-3.16
2023-11-30T04:44:35.811Z,-3.20
2023-11-30T04:47:04.242Z,-3.26
2023-11-30T04:49:32.630Z,-3.31
2023-11-30T04:52:00.690Z,-3.36
2023-11-30T04:54:28.813Z,-3.39
2023-11-30T04:56:57.041Z,-3.42
2023-11-30T04:59:25.186Z,-3.43
2023-11-30T05:01:53.362Z,-3.43
2023-11-30T05:04:21.709Z,-3.45
2023-11-30T05:06:50.093Z,-3.48
2023-11-30T05:09:18.441Z,-3.51
2023-11-30T05:11:46.636Z,-3.56
2023-11-30T05:14:14.649Z,-3.60
2023-11-30T05:16:42.755Z,-3.66
2023-11-30T05:19:11.161Z,-3.70
2023-11-30T05:21:39.268Z,-3.75
2023-11-30T05:24:07.430Z,-3.78
2023-11-30T05:26:35.639Z,-3.81
2023-11-30T05:29:04.237Z,-3.83
2023-11-30T05:31:32.422Z,-3.85
2023-11-30T05:34:00.752Z,-3.87
2023-11-30T05:36:28.853Z,-3.88
2023-11-30T05:38:57.022Z,-3.89
2023-11-30T05:41:25.163Z,-3.90
2023-11-30T05:43:53.261Z,-3.92
2023-11-30T05:46:21.474Z,-3.95
2023-11-30T05:48:52.728Z,-3.96
2023-11-30T05:51:21.107Z,-3.95
2023-11-30T05:53:49.290Z,-3.92
2023-11-30T05:56:17.505Z,-3.90
2023-11-30T05:58:45.600Z,-3.87
2023-11-30T06:01:13.914Z,-3.84
2023-11-30T06:03:42.361Z,-3.81
2023-11-30T06:06:11.440Z,-3.77
2023-11-30T06:08:39.754Z,-3.72
2023-11-30T06:11:08.279Z,-3.66
2023-11-30T06:13:36.572Z,-3.60
2023-11-30T06:16:05.225Z,-3.54
2023-11-30T06:18:33.425Z,-3.49
2023-11-30T06:21:02.135Z,-3.44
2023-11-30T06:23:30.302Z,-3.39
2023-11-30T06:25:58.469Z,-3.32
2023-11-30T06:28:29.651Z,-3.25
2023-11-30T06:30:57.703Z,-3.19
2023-11-30T06:33:25.947Z,-3.13
2023-11-30T06:35:54.018Z,-3.06
2023-11-30T06:38:22.154Z,-3.01
2023-11-30T06:40:50.398Z,-2.95
2023-11-30T06:43:18.639Z,-2.88
2023-11-30T06:45:46.951Z,-2.80
2023-11-30T06:48:15.108Z,-2.72
2023-11-30T06:50:43.201Z,-2.66
2023-11-30T06:53:11.239Z,-2.59
2023-11-30T06:55:39.421Z,-2.54
2023-11-30T06:58:07.714Z,-2.49
2023-11-30T07:00:36.619Z,-2.47
2023-11-30T07:03:04.867Z,-2.43
2023-11-30T07:05:33.054Z,-2.41
2023-11-30T07:08:01.523Z,-2.38
2023-11-30T07:10:30.856Z,-2.31
2023-11-30T07:12:59.241Z,-2.20
2023-11-30T07:15:27.308Z,-2.13
2023-11-30T07:17:55.678Z,-2.06
2023-11-30T07:20:23.844Z,-1.99
2023-11-30T07:22:51.931Z,-1.92
2023-11-30T07:25:20.245Z,-1.85
2023-11-30T07:27:48.790Z,-1.82
2023-11-30T07:30:17.195Z,-1.80
2023-11-30T07:32:45.373Z,-1.76
2023-11-30T07:35:13.592Z,-1.69
2023-11-30T07:37:43.765Z,-1.65
2023-11-30T07:40:12.098Z,-1.61
2023-11-30T07:42:40.389Z,-1.58
2023-11-30T07:45:10.845Z,-1.52
2023-11-30T07:47:39.100Z,-1.43
2023-11-30T07:50:07.705Z,-1.35
2023-11-30T07:52:38.644Z,-1.23
2023-11-30T07:55:08.772Z,-1.13
2023-11-30T07:57:37.653Z,-1.07
2023-11-30T08:00:10.307Z,-1.04
2023-11-30T08:02:39.524Z,-0.99
2023-11-30T08:05:07.939Z,-0.99
2023-11-30T08:07:36.486Z,-0.97
2023-11-30T08:10:07.055Z,-0.92
2023-11-30T08:12:35.355Z,-0.87
2023-11-30T08:15:04.731Z,-0.77
2023-11-30T08:17:32.876Z,-0.67
2023-11-30T08:20:01.165Z,-0.54
2023-11-30T08:22:29.798Z,-0.41
2023-11-30T08:24:58.267Z,-0.41
2023-11-30T08:27:27.317Z,-0.50
2023-11-30T08:29:55.467Z,-0.55
2023-11-30T08:32:23.768Z,-0.54
2023-11-30T08:34:52.509Z,-0.50
2023-11-30T08:37:20.659Z,-0.44
2023-11-30T08:39:48.974Z,-0.40
2023-11-30T08:42:17.166Z,-0.30
2023-11-30T08:44:45.316Z,-0.20
2023-11-30T08:47:13.753Z,-0.09
2023-11-30T08:49:42.026Z,0.01
2023-11-30T08:52:10.119Z,0.12
2023-11-30T08:54:39.208Z,0.29
2023-11-30T08:57:09.194Z,0.32
2023-11-30T08:59:37.376Z,0.20
2023-11-30T09:02:07.085Z,0.12
2023-11-30T09:04:35.539Z,0.15
2023-11-30T09:07:03.875Z,0.14
2023-11-30T09:09:32.136Z,0.12
2023-11-30T09:12:00.392Z,0.21
2023-11-30T09:14:29.090Z,0.33
2023-11-30T09:16:57.151Z,0.39
2023-11-30T09:19:25.601Z,0.30
2023-11-30T09:21:54.150Z,0.20
2023-11-30T09:24:23.734Z,0.27
2023-11-30T09:26:52.487Z,0.40
2023-11-30T09:29:20.738Z,0.46
2023-11-30T09:31:48.837Z,0.50
2023-11-30T09:34:17.087Z,0.47
2023-11-30T09:36:45.304Z,0.38
2023-11-30T09:39:18.606Z,0.38
2023-11-30T09:41:46.716Z,0.40
2023-11-30T09:44:14.816Z,0.36
2023-11-30T09:46:43.877Z,0.37
2023-11-30T09:49:12.220Z,0.47
2023-11-30T09:51:42.901Z,0.54
2023-11-30T09:54:11.367Z,0.58
2023-11-30T09:56:39.716Z,0.67
2023-11-30T09:59:08.305Z,0.74
2023-11-30T10:01:36.771Z,0.77
2023-11-30T10:04:15.913Z,0.75
2023-11-30T10:06:44.754Z,0.76
2023-11-30T10:09:14.503Z,0.81
2023-11-30T10:11:43.252Z,0.84
2023-11-30T10:14:11.608Z,0.85
2023-11-30T10:16:40.819Z,0.92
2023-11-30T10:19:09.352Z,0.99
2023-11-30T10:21:39.430Z,0.99
2023-11-30T10:24:09.503Z,0.98
2023-11-30T10:26:38.625Z,1.02
2023-11-30T10:29:08.150Z,1.09
2023-11-30T10:31:36.831Z,1.16
2023-11-30T10:34:12.295Z,1.28
2023-11-30T10:36:41.681Z,1.35
2023-11-30T10:39:24.361Z,1.43
2023-11-30T10:41:54.444Z,1.56
2023-11-30T10:44:27.340Z,1.58
2023-11-30T10:47:05.422Z,1.63
2023-11-30T10:49:33.841Z,1.66
2023-11-30T10:52:04.235Z,1.65
2023-11-30T10:54:51.136Z,1.58
2023-11-30T10:57:20.462Z,1.65
2023-11-30T10:59:49.508Z,1.81
2023-11-30T11:02:18.006Z,2.12
2023-11-30T11:04:46.258Z,2.78
2023-11-30T11:07:14.618Z,3.27
2023-11-30T11:09:55.598Z,3.15
2023-11-30T11:12:28.111Z,2.78
2023-11-30T11:15:14.676Z,2.52
2023-11-30T11:17:51.407Z,2.47
2023-11-30T11:20:27.865Z,2.65
2023-11-30T11:22:57.091Z,3.04
2023-11-30T11:25:26.595Z,3.22
2023-11-30T11:27:56.422Z,3.14
2023-11-30T11:30:28.381Z,2.81
2023-11-30T11:33:00.908Z,2.57
2023-11-30T11:35:29.346Z,2.39
2023-11-30T11:38:01.367Z,2.20
2023-11-30T11:40:29.617Z,2.06
2023-11-30T11:42:58.239Z,1.92
2023-11-30T11:45:26.700Z,1.77
2023-11-30T11:47:55.319Z,1.68
2023-11-30T11:50:23.976Z,1.72
2023-11-30T11:52:52.246Z,1.78
2023-11-30T11:55:23.888Z,1.80
2023-11-30T11:57:53.443Z,1.79
2023-11-30T12:00:22.338Z,1.72
2023-11-30T12:02:51.227Z,1.59
2023-11-30T12:05:26.907Z,1.56
2023-11-30T12:08:01.026Z,1.63
2023-11-30T12:10:34.562Z,1.69
2023-11-30T12:13:03.923Z,1.65
2023-11-30T12:15:32.416Z,1.56
2023-11-30T12:18:02.226Z,1.58
2023-11-30T12:20:32.404Z,1.60
2023-11-30T12:23:01.023Z,1.54
2023-11-30T12:25:32.553Z,1.50
2023-11-30T12:28:00.880Z,1.45
2023-11-30T12:30:29.299Z,1.44
2023-11-30T12:32:57.922Z,1.43
2023-11-30T12:35:26.279Z,1.44
2023-11-30T12:37:54.544Z,1.41
2023-11-30T12:40:22.869Z,1.45
2023-11-30T12:42:51.126Z,1.48
2023-11-30T12:45:19.954Z,1.41
2023-11-30T12:47:48.553Z,1.41
2023-11-30T12:50:17.014Z,1.42
2023-11-30T12:52:45.216Z,1.35
2023-11-30T12:55:14.920Z,1.28
2023-11-30T12:57:44.272Z,1.32
2023-11-30T13:00:16.353Z,1.36
2023-11-30T13:02:48.031Z,1.35
2023-11-30T13:05:16.533Z,1.28
2023-11-30T13:07:44.856Z,1.22
2023-11-30T13:10:13.256Z,1.08
2023-11-30T13:12:42.690Z,0.94
2023-11-30T13:15:13.741Z,0.82
2023-11-30T13:17:42.925Z,0.73
2023-11-30T13:20:15.060Z,0.59
2023-11-30T13:22:47.320Z,0.49
2023-11-30T13:25:15.988Z,0.41
2023-11-30T13:27:48.564Z,0.30
2023-11-30T13:30:18.472Z,0.18
2023-11-30T13:32:48.023Z,0.07
2023-11-30T13:35:16.860Z,-0.07
2023-11-30T13:37:45.188Z,-0.20
2023-11-30T13:40:13.528Z,-0.35
2023-11-30T13:42:41.967Z,-0.48
2023-11-30T13:45:10.630Z,-0.60
2023-11-30T13:47:43.148Z,-0.72
2023-11-30T13:50:20.776Z,-0.82
2023-11-30T13:53:00.247Z,-0.95
2023-11-30T13:55:29.161Z,-1.05
2023-11-30T13:57:57.934Z,-1.15
2023-11-30T14:00:26.376Z,-1.25
2023-11-30T14:02:55.187Z,-1.36
2023-11-30T14:05:23.899Z,-1.46
2023-11-30T14:07:52.713Z,-1.57
2023-11-30T14:10:20.907Z,-1.65
2023-11-30T14:12:49.552Z,-1.74
2023-11-30T14:15:17.909Z,-1.83
2023-11-30T14:17:46.292Z,-1.92
2023-11-30T14:20:14.834Z,-2.01
2023-11-30T14:22:43.050Z,-2.07
2023-11-30T14:25:13.654Z,-2.14
2023-11-30T14:27:42.262Z,-2.19
2023-11-30T14:30:11.477Z,-2.24
2023-11-30T14:32:40.390Z,-2.28
2023-11-30T14:35:09.249Z,-2.34
2023-11-30T14:37:37.700Z,-2.38
2023-11-30T14:40:09.912Z,-2.44
2023-11-30T14:42:38.061Z,-2.50
2023-11-30T14:45:10.156Z,-2.57
2023-11-30T14:47:41.106Z,-2.64
2023-11-30T14:50:11.828Z,-2.69
2023-11-30T14:52:45.317Z,-2.74
2023-11-30T14:55:14.640Z,-2.78
2023-11-30T14:57:44.781Z,-2.84
2023-11-30T15:00:16.526Z,-2.90
2023-11-30T15:02:45.125Z,-2.96
2023-11-30T15:05:15.756Z,-3.00
2023-11-30T15:07:44.608Z,-3.04
2023-11-30T15:10:14.335Z,-3.08
2023-11-30T15:12:43.214Z,-3.09
2023-11-30T15:15:15.535Z,-3.11
2023-11-30T15:17:45.912Z,-3.15
2023-11-30T15:20:14.695Z,-3.19
2023-11-30T15:22:43.226Z,-3.23
2023-11-30T15:25:18.968Z,-3.27
2023-11-30T15:27:49.554Z,-3.30
2023-11-30T15:30:18.882Z,-3.32
2023-11-30T15:32:47.483Z,-3.35
2023-11-30T15:35:16.650Z,-3.37
2023-11-30T15:37:50.374Z,-3.41
2023-11-30T15:40:21.786Z,-3.45
2023-11-30T15:42:52.061Z,-3.49
2023-11-30T15:45:23.764Z,-3.50
2023-11-30T15:47:52.555Z,-3.51
2023-11-30T15:50:21.194Z,-3.54
2023-11-30T15:53:05.865Z,-3.55
2023-11-30T15:55:34.091Z,-3.62
2023-11-30T15:58:02.563Z,-3.64
2023-11-30T16:00:30.859Z,-3.66
2023-11-30T16:02:59.233Z,-3.66
2023-11-30T16:05:29.690Z,-3.66
2023-11-30T16:07:59.307Z,-3.68
2023-11-30T16:10:27.749Z,-3.69
2023-11-30T16:12:56.245Z,-3.71
2023-11-30T16:15:25.797Z,-3.72
2023-11-30T16:17:54.492Z,-3.73
2023-11-30T16:20:22.732Z,-3.73
2023-11-30T16:22:51.177Z,-3.76
2023-11-30T16:25:19.622Z,-3.78
2023-11-30T16:27:47.962Z,-3.81
2023-11-30T16:30:16.345Z,-3.82
2023-11-30T16:32:45.798Z,-3.85
2023-11-30T16:35:14.858Z,-3.86
2023-11-30T16:37:43.169Z,-3.86
2023-11-30T16:40:12.395Z,-3.87
2023-11-30T16:42:41.040Z,-3.88
2023-11-30T16:45:10.093Z,-3.91
2023-11-30T16:47:39.610Z,-3.93
2023-11-30T16:50:10.283Z,-3.94
2023-11-30T16:52:38.733Z,-3.94
2023-11-30T16:55:07.539Z,-3.97
2023-11-30T16:57:37.410Z,-4.00
2023-11-30T17:00:08.345Z,-4.02
2023-11-30T17:02:36.634Z,-4.03
2023-11-30T17:05:05.745Z,-4.04
2023-11-30T17:07:34.102Z,-4.04
2023-11-30T17:10:03.866Z,-4.05
2023-11-30T17:12:32.634Z,-4.05
2023-11-30T17:15:01.249Z,-4.06
2023-11-30T17:17:29.806Z,-4.08
2023-11-30T17:19:58.164Z,-4.10
2023-11-30T17:22:26.604Z,-4.12
2023-11-30T17:24:55.102Z,-4.13
2023-11-30T17:27:23.751Z,-4.15
2023-11-30T17:29:52.154Z,-4.16
2023-11-30T17:32:20.634Z,-4.17
2023-11-30T17:34:49.093Z,-4.18
2023-11-30T17:37:17.457Z,-4.16
2023-11-30T17:39:47.364Z,-4.16
2023-11-30T17:42:15.928Z,-4.14
2023-11-30T17:44:44.448Z,-4.15
2023-11-30T17:47:12.962Z,-4.18
2023-11-30T17:49:41.553Z,-4.21
2023-11-30T17:52:10.014Z,-4.22
2023-11-30T17:54:38.703Z,-4.23
2023-11-30T17:57:07.033Z,-4.24
2023-11-30T17:59:35.472Z,-4.24
2023-11-30T18:02:04.364Z,-4.24
2023-11-30T18:04:33.118Z,-4.25
2023-11-30T18:07:02.689Z,-4.26
2023-11-30T18:09:31.339Z,-4.27
2023-11-30T18:11:59.593Z,-4.27
2023-11-30T18:14:32.831Z,-4.26
2023-11-30T18:17:02.347Z,-4.26
2023-11-30T18:19:31.138Z,-4.27
2023-11-30T18:21:59.761Z,-4.28
2023-11-30T18:24:31.824Z,-4.29
2023-11-30T18:27:01.261Z,-4.32
2023-11-30T18:29:31.355Z,-4.34
2023-11-30T18:31:59.936Z,-4.35
2023-11-30T18:34:28.924Z,-4.37
2023-11-30T18:36:57.902Z,-4.41
2023-11-30T18:39:26.533Z,-4.42
2023-11-30T18:41:56.416Z,-4.43
2023-11-30T18:44:24.944Z,-4.44
2023-11-30T18:46:53.495Z,-4.46
2023-11-30T18:49:22.088Z,-4.46
2023-11-30T18:51:50.399Z,-4.46
2023-11-30T18:54:21.803Z,-4.48
2023-11-30T18:56:50.556Z,-4.49
2023-11-30T18:59:18.961Z,-4.50
2023-11-30T19:01:48.927Z,-4.51
2023-11-30T19:04:17.506Z,-4.53
2023-11-30T19:06:45.997Z,-4.54
2023-11-30T19:09:14.582Z,-4.55
2023-11-30T19:11:45.822Z,-4.58
2023-11-30T19:14:14.182Z,-4.61
2023-11-30T19:16:42.777Z,-4.63
2023-11-30T19:19:11.588Z,-4.65
2023-11-30T19:21:43.807Z,-4.67
2023-11-30T19:24:13.744Z,-4.71
2023-11-30T19:26:44.060Z,-4.71
2023-11-30T19:29:14.401Z,-4.72
2023-11-30T19:31:43.007Z,-4.72
2023-11-30T19:34:13.425Z,-4.71
2023-11-30T19:36:42.528Z,-4.71
2023-11-30T19:39:11.051Z,-4.73
2023-11-30T19:41:46.643Z,-4.74
2023-11-30T19:44:17.449Z,-4.75
2023-11-30T19:46:49.728Z,-4.74
2023-11-30T19:49:18.179Z,-4.74
2023-11-30T19:51:46.487Z,-4.71
2023-11-30T19:54:14.865Z,-4.67
2023-11-30T19:56:43.601Z,-4.67
2023-11-30T19:59:12.162Z,-4.67
2023-11-30T20:01:40.713Z,-4.67
2023-11-30T20:04:09.398Z,-4.67
2023-11-30T20:06:37.984Z,-4.65
2023-11-30T20:09:06.524Z,-4.64
2023-11-30T20:11:35.052Z,-4.64
2023-11-30T20:14:03.550Z,-4.64
2023-11-30T20:16:32.146Z,-4.64
2023-11-30T20:19:01.504Z,-4.64
2023-11-30T20:21:29.987Z,-4.63
2023-11-30T20:23:58.327Z,-4.63
2023-11-30T20:26:26.950Z,-4.63
2023-11-30T20:28:55.335Z,-4.63
2023-11-30T20:31:23.590Z,-4.63
2023-11-30T20:33:52.927Z,-4.61
2023-11-30T20:36:21.577Z,-4.60
2023-11-30T20:38:50.230Z,-4.57
2023-11-30T20:41:18.776Z,-4.56
2023-11-30T20:43:50.375Z,-4.54
2023-11-30T20:46:20.902Z,-4.53
2023-11-30T20:48:50.224Z,-4.51
2023-11-30T20:51:19.668Z,-4.51
2023-11-30T20:53:48.096Z,-4.51
2023-11-30T20:56:16.498Z,-4.51
2023-11-30T20:58:46.989Z,-4.52
2023-11-30T21:01:16.020Z,-4.53
2023-11-30T21:03:51.336Z,-4.54
2023-11-30T21:06:19.611Z,-4.57
2023-11-30T21:08:47.946Z,-4.60
2023-11-30T21:11:16.375Z,-4.62
2023-11-30T21:13:44.863Z,-4.65
2023-11-30T21:16:18.736Z,-4.66
2023-11-30T21:18:48.083Z,-4.67
2023-11-30T21:21:17.935Z,-4.68
2023-11-30T21:23:46.463Z,-4.68
2023-11-30T21:26:14.745Z,-4.67
2023-11-30T21:28:43.167Z,-4.66
2023-11-30T21:31:11.713Z,-4.64
2023-11-30T21:33:40.151Z,-4.63
2023-11-30T21:36:13.670Z,-4.60
2023-11-30T21:38:42.360Z,-4.58
2023-11-30T21:41:14.996Z,-4.56
2023-11-30T21:43:44.193Z,-4.54
2023-11-30T21:46:12.795Z,-4.53
2023-11-30T21:48:41.553Z,-4.51
2023-11-30T21:51:10.089Z,-4.50
2023-11-30T21:53:38.284Z,-4.49
2023-11-30T21:56:07.527Z,-4.49
2023-11-30T21:58:36.055Z,-4.49
2023-11-30T22:01:06.187Z,-4.49
2023-11-30T22:03:35.024Z,-4.47
2023-11-30T22:06:03.486Z,-4.45
2023-11-30T22:08:31.822Z,-4.44
2023-11-30T22:11:00.196Z,-4.44
2023-11-30T22:13:28.668Z,-4.42
2023-11-30T22:16:03.491Z,-4.41
2023-11-30T22:18:35.277Z,-4.39
2023-11-30T22:21:04.373Z,-4.37
2023-11-30T22:23:33.913Z,-4.34
2023-11-30T22:26:04.471Z,-4.32
2023-11-30T22:28:33.339Z,-4.28
2023-11-30T22:31:01.877Z,-4.24
2023-11-30T22:33:30.467Z,-4.21
2023-11-30T22:35:58.781Z,-4.18
2023-11-30T22:38:31.017Z,-4.14
2023-11-30T22:41:01.217Z,-4.10
2023-11-30T22:43:29.700Z,-4.07
2023-11-30T22:45:58.205Z,-4.04
2023-11-30T22:48:26.586Z,-4.01
2023-11-30T22:50:54.882Z,-3.97
2023-11-30T22:53:23.415Z,-3.92
2023-11-30T22:55:52.017Z,-3.87
2023-11-30T22:58:20.571Z,-3.85
2023-11-30T23:00:49.418Z,-3.84
2023-11-30T23:03:18.289Z,-3.80
2023-11-30T23:05:46.812Z,-3.77
2023-11-30T23:08:15.116Z,-3.72
2023-11-30T23:10:43.612Z,-3.69
2023-11-30T23:13:12.027Z,-3.65
2023-11-30T23:15:40.470Z,-3.61
2023-11-30T23:18:09.259Z,-3.56
2023-11-30T23:20:37.699Z,-3.51
2023-11-30T23:23:05.978Z,-3.46
2023-11-30T23:25:34.181Z,-3.41
2023-11-30T23:28:02.585Z,-3.37
2023-11-30T23:30:31.980Z,-3.33
2023-11-30T23:33:00.493Z,-3.30
2023-11-30T23:35:28.836Z,-3.27
2023-11-30T23:37:57.125Z,-3.26
2023-11-30T23:40:25.716Z,-3.24
2023-11-30T23:42:54.196Z,-3.22
2023-11-30T23:45:22.541Z,-3.19
2023-11-30T23:47:51.030Z,-3.17
2023-11-30T23:50:19.458Z,-3.13
2023-11-30T23:52:47.709Z,-3.10
2023-11-30T23:55:16.191Z,-3.07
2023-11-30T23:57:44.603Z,-3.05
